createdAt,value
2019-05-10T00:00:45.753Z,19.12
2019-05-10T00:03:32.715Z,19.25
2019-05-10T00:06:19.880Z,19.15
2019-05-10T00:08:48.470Z,17.45
2019-05-10T00:11:28.894Z,18.05
2019-05-10T00:14:05.025Z,18.90
2019-05-10T00:16:33.819Z,18.90
2019-05-10T00:19:03.320Z,20.32
2019-05-10T00:21:32.684Z,19.92
2019-05-10T00:24:01.884Z,20.88
2019-05-10T00:26:31.026Z,20.77
2019-05-10T00:29:00.290Z,21.73
2019-05-10T00:31:29.483Z,20.62
2019-05-10T00:33:58.992Z,19.87
2019-05-10T00:36:28.309Z,21.02
2019-05-10T00:38:57.654Z,20.43
2019-05-10T00:41:26.766Z,19.95
2019-05-10T00:43:55.852Z,20.48
2019-05-10T00:46:25.049Z,23.02
2019-05-10T00:48:54.492Z,21.45
2019-05-10T00:51:23.754Z,21.73
2019-05-10T00:53:52.967Z,23.18
2019-05-10T00:56:22.165Z,24.67
2019-05-10T00:58:51.243Z,23.38
2019-05-10T01:01:20.320Z,21.35
2019-05-10T01:03:49.435Z,23.30
2019-05-10T01:06:18.836Z,22.75
2019-05-10T01:08:48.130Z,22.42
2019-05-10T01:11:17.326Z,23.50
2019-05-10T01:13:46.446Z,22.77
2019-05-10T01:16:15.535Z,22.73
2019-05-10T01:18:44.905Z,22.95
2019-05-10T01:21:14.127Z,22.25
2019-05-10T01:23:42.944Z,23.20
2019-05-10T01:26:11.948Z,26.23
2019-05-10T01:28:41.355Z,24.60
2019-05-10T01:31:10.344Z,24.80
2019-05-10T01:33:39.215Z,25.08
2019-05-10T01:36:08.514Z,23.87
2019-05-10T01:38:37.480Z,24.70
2019-05-10T01:41:06.607Z,22.85
2019-05-10T01:43:35.914Z,21.77
2019-05-10T01:46:05.371Z,20.45
2019-05-10T01:48:34.955Z,20.80
2019-05-10T01:51:04.104Z,22.35
2019-05-10T01:53:33.349Z,21.70
2019-05-10T01:56:02.640Z,21.87
2019-05-10T01:58:31.919Z,20.75
2019-05-10T02:01:01.074Z,21.42
2019-05-10T02:03:30.449Z,21.90
2019-05-10T02:05:59.657Z,21.65
2019-05-10T02:08:28.963Z,21.23
2019-05-10T02:10:58.345Z,21.07
2019-05-10T02:13:27.630Z,20.75
2019-05-10T02:15:56.760Z,20.35
2019-05-10T02:18:26.068Z,19.85
2019-05-10T02:20:55.139Z,19.02
2019-05-10T02:23:24.231Z,19.20
2019-05-10T02:26:08.471Z,17.73
2019-05-10T02:28:24.127Z,21.55
2019-05-10T02:30:53.315Z,19.05
2019-05-10T02:33:22.517Z,17.12
2019-05-10T02:35:51.641Z,18.42
2019-05-10T02:38:21.006Z,17.87
2019-05-10T02:40:50.017Z,18.02
2019-05-10T02:43:19.375Z,18.00
2019-05-10T02:45:48.119Z,18.07
2019-05-10T02:48:16.830Z,18.40
2019-05-10T02:50:45.503Z,18.80
2019-05-10T02:53:14.917Z,16.75
2019-05-10T02:55:43.485Z,19.00
2019-05-10T02:58:15.119Z,18.67
2019-05-10T03:00:44.125Z,17.62
2019-05-10T03:03:13.010Z,18.23
2019-05-10T03:05:48.142Z,19.25
2019-05-10T03:08:14.490Z,20.23
2019-05-10T03:10:44.460Z,19.20
2019-05-10T03:13:14.711Z,20.20
2019-05-10T03:15:44.723Z,20.77
2019-05-10T03:18:13.960Z,18.30
2019-05-10T03:20:43.059Z,19.82
2019-05-10T03:23:11.681Z,19.45
2019-05-10T03:25:40.888Z,17.95
2019-05-10T03:28:09.601Z,17.98
2019-05-10T03:30:38.420Z,18.40
2019-05-10T03:33:07.269Z,20.40
2019-05-10T03:35:35.961Z,17.17
2019-05-10T03:38:04.757Z,17.30
2019-05-10T03:40:33.364Z,17.80
2019-05-10T03:43:02.132Z,16.25
2019-05-10T03:45:30.566Z,16.05
2019-05-10T03:47:59.280Z,16.17
2019-05-10T03:50:28.558Z,15.93
2019-05-10T03:52:57.483Z,15.20
2019-05-10T03:55:26.146Z,15.55
2019-05-10T03:57:54.993Z,16.02
2019-05-10T04:00:24.675Z,16.20
2019-05-10T04:02:53.605Z,14.47
2019-05-10T04:05:22.436Z,14.70
2019-05-10T04:07:51.360Z,14.83
2019-05-10T04:10:21.052Z,16.25
2019-05-10T04:12:49.943Z,16.12
2019-05-10T04:15:18.724Z,20.35
2019-05-10T04:17:50.188Z,20.15
2019-05-10T04:20:17.763Z,18.70
2019-05-10T04:22:46.741Z,17.55
2019-05-10T04:25:15.949Z,18.27
2019-05-10T04:27:45.042Z,17.60
2019-05-10T04:30:14.279Z,17.32
2019-05-10T04:32:43.110Z,18.82
2019-05-10T04:35:11.807Z,16.73
2019-05-10T04:37:41.082Z,16.75
2019-05-10T04:40:10.037Z,17.00
2019-05-10T04:42:38.753Z,17.80
2019-05-10T04:45:07.379Z,17.20
2019-05-10T04:47:36.346Z,16.75
2019-05-10T04:50:05.977Z,17.42
2019-05-10T04:52:34.990Z,17.37
2019-05-10T04:55:04.757Z,17.92
2019-05-10T04:57:49.195Z,18.95
2019-05-10T05:00:05.972Z,19.67
2019-05-10T05:02:34.382Z,22.05
2019-05-10T05:05:03.525Z,21.40
2019-05-10T05:07:32.279Z,20.70
2019-05-10T05:10:00.733Z,20.08
2019-05-10T05:12:29.604Z,18.82
2019-05-10T05:14:58.429Z,18.55
2019-05-10T05:17:27.229Z,18.82
2019-05-10T05:19:56.007Z,19.67
2019-05-10T05:22:25.069Z,18.82
2019-05-10T05:24:55.264Z,19.95
2019-05-10T05:27:24.330Z,19.05
2019-05-10T05:29:53.203Z,18.92
2019-05-10T05:32:21.961Z,19.92
2019-05-10T05:34:50.529Z,20.48
2019-05-10T05:37:22.314Z,19.90
2019-05-10T05:39:51.077Z,19.90
2019-05-10T05:42:22.372Z,19.40
2019-05-10T05:44:50.125Z,20.10
2019-05-10T05:47:19.617Z,19.35
2019-05-10T05:49:48.428Z,18.62
2019-05-10T05:52:17.190Z,17.35
2019-05-10T05:54:45.901Z,19.27
2019-05-10T05:57:14.664Z,18.05
2019-05-10T05:59:43.343Z,16.65
2019-05-10T06:02:12.031Z,15.88
2019-05-10T06:04:45.922Z,16.42
2019-05-10T06:07:11.803Z,15.25
2019-05-10T06:09:40.366Z,14.53
2019-05-10T06:12:12.663Z,16.05
2019-05-10T06:14:43.102Z,13.80
2019-05-10T06:17:09.981Z,14.13
2019-05-10T06:19:38.658Z,12.45
2019-05-10T06:22:07.222Z,14.05
2019-05-10T06:24:35.814Z,12.30
2019-05-10T06:27:05.090Z,12.43
2019-05-10T06:29:33.701Z,11.10
2019-05-10T06:32:02.382Z,9.35
2019-05-10T06:34:31.825Z,9.95
2019-05-10T06:37:01.177Z,9.43
2019-05-10T06:39:29.773Z,10.03
2019-05-10T06:41:58.487Z,8.23
2019-05-10T06:44:31.430Z,10.13
2019-05-10T06:47:02.200Z,9.98
2019-05-10T06:49:27.572Z,8.18
2019-05-10T06:51:56.284Z,9.85
2019-05-10T06:54:26.325Z,8.68
2019-05-10T06:56:54.858Z,7.62
2019-05-10T06:59:24.727Z,7.45
2019-05-10T07:01:54.212Z,8.25
2019-05-10T07:04:22.787Z,7.78
2019-05-10T07:06:51.337Z,7.62
2019-05-10T07:09:20.039Z,11.83
2019-05-10T07:11:48.869Z,6.72
2019-05-10T07:14:17.531Z,6.42
2019-05-10T07:16:46.063Z,6.80
2019-05-10T07:19:14.906Z,7.03
2019-05-10T07:21:44.750Z,5.55
2019-05-10T07:24:18.172Z,6.60
2019-05-10T07:26:44.338Z,5.97
2019-05-10T07:29:28.741Z,6.00
2019-05-10T07:31:43.687Z,6.35
2019-05-10T07:34:15.748Z,5.70
2019-05-10T07:36:42.760Z,6.35
2019-05-10T07:39:11.665Z,5.72
2019-05-10T07:41:41.296Z,6.37
2019-05-10T07:44:10.641Z,6.00
2019-05-10T07:46:39.879Z,6.08
2019-05-10T07:49:09.657Z,5.90
2019-05-10T07:51:38.470Z,5.92
2019-05-10T07:54:07.434Z,6.00
2019-05-10T07:56:39.128Z,5.87
2019-05-10T07:59:06.878Z,5.62
2019-05-10T08:01:37.898Z,6.30
2019-05-10T08:04:08.859Z,4.97
2019-05-10T08:06:43.422Z,5.35
2019-05-10T08:09:09.702Z,5.58
2019-05-10T08:11:39.158Z,5.20
2019-05-10T08:14:11.089Z,4.85
2019-05-10T08:16:38.749Z,4.67
2019-05-10T08:19:07.712Z,4.75
2019-05-10T08:21:36.749Z,4.40
2019-05-10T08:24:13.449Z,4.45
2019-05-10T08:26:35.581Z,4.78
2019-05-10T08:29:07.745Z,4.85
2019-05-10T08:31:40.634Z,4.80
2019-05-10T08:34:05.195Z,4.72
2019-05-10T08:36:37.154Z,4.25
2019-05-10T08:39:10.696Z,4.33
2019-05-10T08:41:36.306Z,4.83
2019-05-10T08:44:05.146Z,3.80
2019-05-10T08:46:40.940Z,3.70
2019-05-10T08:49:04.322Z,3.83
2019-05-10T08:51:34.563Z,3.98
2019-05-10T08:54:03.288Z,4.37
2019-05-10T08:56:33.338Z,4.53
2019-05-10T08:59:03.892Z,3.58
2019-05-10T09:01:38.779Z,3.40
2019-05-10T09:04:06.755Z,2.90
2019-05-10T09:06:33.349Z,2.80
2019-05-10T09:09:05.928Z,2.92
2019-05-10T09:11:36.870Z,3.08
2019-05-10T09:14:05.513Z,3.17
2019-05-10T09:16:39.196Z,2.85
2019-05-10T09:19:04.439Z,3.27
2019-05-10T09:21:34.203Z,3.02
2019-05-10T09:24:06.439Z,3.02
2019-05-10T09:26:33.367Z,3.55
2019-05-10T09:29:02.128Z,3.50
2019-05-10T09:31:33.173Z,3.65
2019-05-10T09:34:02.448Z,3.70
2019-05-10T09:36:36.024Z,3.47
2019-05-10T09:39:03.382Z,3.42
2019-05-10T09:41:36.151Z,3.85
2019-05-10T09:44:03.063Z,4.00
2019-05-10T09:46:32.489Z,3.70
2019-05-10T09:49:14.260Z,4.08
2019-05-10T09:51:33.084Z,3.67
2019-05-10T09:54:01.947Z,3.95
2019-05-10T09:56:32.820Z,3.70
2019-05-10T09:59:03.494Z,3.90
2019-05-10T10:01:32.199Z,3.80
2019-05-10T10:04:02.332Z,3.70
2019-05-10T10:06:31.354Z,3.98
2019-05-10T10:09:00.958Z,3.85
2019-05-10T10:11:31.080Z,3.20
2019-05-10T10:14:02.148Z,3.58
2019-05-10T10:16:30.102Z,3.50
2019-05-10T10:18:58.756Z,3.67
2019-05-10T10:21:35.102Z,3.33
2019-05-10T10:24:00.466Z,3.45
2019-05-10T10:26:28.522Z,3.42
2019-05-10T10:28:59.883Z,3.00
2019-05-10T10:31:33.104Z,3.37
2019-05-10T10:34:02.694Z,3.58
2019-05-10T10:36:29.661Z,4.35
2019-05-10T10:38:59.570Z,4.00
2019-05-10T10:41:31.683Z,3.77
2019-05-10T10:43:58.623Z,2.42
2019-05-10T10:46:28.007Z,2.42
2019-05-10T10:48:57.023Z,2.80
2019-05-10T10:51:26.527Z,2.77
2019-05-10T10:53:58.074Z,2.77
2019-05-10T10:56:27.666Z,2.77
2019-05-10T10:58:58.100Z,2.60
2019-05-10T11:01:33.179Z,3.20
2019-05-10T11:03:57.107Z,3.77
2019-05-10T11:06:25.680Z,2.80
2019-05-10T11:08:55.427Z,2.75
2019-05-10T11:11:24.301Z,2.50
2019-05-10T11:14:00.443Z,3.12
2019-05-10T11:16:23.404Z,2.37
2019-05-10T11:18:52.104Z,3.08
2019-05-10T11:21:23.287Z,2.98
2019-05-10T11:23:51.619Z,3.10
2019-05-10T11:26:21.766Z,2.58
2019-05-10T11:28:51.397Z,2.12
2019-05-10T11:31:21.414Z,2.70
2019-05-10T11:33:53.641Z,2.45
2019-05-10T11:36:21.172Z,2.80
2019-05-10T11:38:56.537Z,2.60
2019-05-10T11:41:23.785Z,2.30
2019-05-10T11:43:50.703Z,2.30
2019-05-10T11:46:20.909Z,2.55
2019-05-10T11:48:51.039Z,2.05
2019-05-10T11:51:21.143Z,2.55
2019-05-10T11:53:55.620Z,2.30
2019-05-10T11:56:26.784Z,2.10
2019-05-10T11:58:55.392Z,2.02
2019-05-10T12:01:22.208Z,1.70
2019-05-10T12:03:50.951Z,2.10
2019-05-10T12:06:21.370Z,2.60
2019-05-10T12:08:56.876Z,1.52
2019-05-10T12:11:32.978Z,1.60
2019-05-10T12:13:57.556Z,1.60
2019-05-10T12:16:23.905Z,1.60
2019-05-10T12:21:22.681Z,2.15
2019-05-10T12:23:55.997Z,1.70
2019-05-10T12:26:18.180Z,1.85
2019-05-10T12:28:52.352Z,1.87
2019-05-10T12:31:23.427Z,1.60
2019-05-10T12:33:51.804Z,1.60
2019-05-10T12:36:25.563Z,1.47
2019-05-10T12:38:50.777Z,1.60
2019-05-10T12:41:23.225Z,1.30
2019-05-10T12:43:51.702Z,1.10
2019-05-10T12:46:20.726Z,1.20
2019-05-10T12:48:51.604Z,1.20
2019-05-10T12:51:21.116Z,1.05
2019-05-10T12:53:52.174Z,1.40
2019-05-10T12:56:20.307Z,1.47
2019-05-10T12:58:56.729Z,1.40
2019-05-10T13:01:25.435Z,1.20
2019-05-10T13:03:50.817Z,1.57
2019-05-10T13:06:19.885Z,1.40
2019-05-10T13:08:48.589Z,1.50
2019-05-10T13:11:18.977Z,1.30
2019-05-10T13:13:47.702Z,1.40
2019-05-10T13:16:16.428Z,1.22
2019-05-10T13:18:51.927Z,0.90
2019-05-10T13:21:20.719Z,1.07
2019-05-10T13:23:46.126Z,1.00
2019-05-10T13:26:14.735Z,1.15
2019-05-10T13:28:43.319Z,1.10
2019-05-10T13:31:14.854Z,1.20
2019-05-10T13:33:44.414Z,1.10
2019-05-10T13:36:12.687Z,1.37
2019-05-10T13:38:43.202Z,2.65
2019-05-10T13:41:11.523Z,2.95
2019-05-10T13:43:40.218Z,3.05
2019-05-10T13:46:08.952Z,2.77
2019-05-10T13:48:37.800Z,2.90
2019-05-10T13:51:06.272Z,2.77
2019-05-10T13:53:35.239Z,2.25
2019-05-10T13:56:04.851Z,2.27
2019-05-10T13:58:34.314Z,2.30
2019-05-10T14:01:06.710Z,2.40
2019-05-10T14:03:43.634Z,2.52
2019-05-10T14:06:03.520Z,2.75
2019-05-10T14:08:32.570Z,2.65
2019-05-10T14:11:01.872Z,2.50
2019-05-10T14:13:35.767Z,2.80
2019-05-10T14:16:01.909Z,2.60
2019-05-10T14:18:30.515Z,2.45
2019-05-10T14:20:59.143Z,2.40
2019-05-10T14:23:28.982Z,2.20
2019-05-10T14:25:58.018Z,2.35
2019-05-10T14:28:26.825Z,2.33
2019-05-10T14:30:57.407Z,2.00
2019-05-10T14:33:25.627Z,1.90
2019-05-10T14:35:55.281Z,1.60
2019-05-10T14:38:24.370Z,2.12
2019-05-10T14:40:53.025Z,1.70
2019-05-10T14:43:21.952Z,1.65
2019-05-10T14:45:50.681Z,1.55
2019-05-10T14:48:28.121Z,1.70
2019-05-10T14:50:49.382Z,1.85
2019-05-10T14:53:19.802Z,1.70
2019-05-10T14:55:48.391Z,1.70
2019-05-10T14:58:17.270Z,1.60
2019-05-10T15:00:45.881Z,2.00
2019-05-10T15:03:14.555Z,1.87
2019-05-10T15:05:43.008Z,1.80
2019-05-10T15:08:11.601Z,1.90
2019-05-10T15:10:41.822Z,2.10
2019-05-10T15:13:10.451Z,1.80
2019-05-10T15:15:39.100Z,2.17
2019-05-10T15:18:07.816Z,2.20
2019-05-10T15:20:36.592Z,1.80
2019-05-10T15:23:05.276Z,2.25
2019-05-10T15:25:34.065Z,2.00
2019-05-10T15:28:03.037Z,2.10
2019-05-10T15:30:31.705Z,2.02
2019-05-10T15:33:00.298Z,1.90
2019-05-10T15:35:28.890Z,1.50
2019-05-10T15:37:57.672Z,1.75
2019-05-10T15:40:26.267Z,1.90
2019-05-10T15:42:54.818Z,1.70
2019-05-10T15:45:23.198Z,1.67
2019-05-10T15:47:57.592Z,1.60
2019-05-10T15:50:23.664Z,1.60
2019-05-10T15:52:52.460Z,1.70
2019-05-10T15:55:26.631Z,1.52
2019-05-10T15:57:51.735Z,1.70
2019-05-10T16:00:25.137Z,1.72
2019-05-10T16:02:53.431Z,1.77
2019-05-10T16:05:25.958Z,2.25
2019-05-10T16:07:53.201Z,1.95
2019-05-10T16:10:28.258Z,2.05
2019-05-10T16:12:52.699Z,1.92
2019-05-10T16:15:21.316Z,1.75
2019-05-10T16:17:53.616Z,1.95
2019-05-10T16:20:20.660Z,2.52
2019-05-10T16:22:49.340Z,2.10
2019-05-10T16:25:18.094Z,2.33
2019-05-10T16:27:46.619Z,2.25
2019-05-10T16:30:18.033Z,2.65
2019-05-10T16:32:46.144Z,2.33
2019-05-10T16:35:14.967Z,2.22
2019-05-10T16:37:43.646Z,2.45
2019-05-10T16:40:13.054Z,2.25
2019-05-10T16:42:41.612Z,2.37
2019-05-10T16:45:10.367Z,2.35
2019-05-10T16:47:38.880Z,2.20
2019-05-10T16:50:07.536Z,2.40
2019-05-10T16:52:36.251Z,3.05
2019-05-10T16:55:09.654Z,2.77
2019-05-10T16:57:39.454Z,2.77
2019-05-10T17:00:10.372Z,3.37
2019-05-10T17:02:42.130Z,3.15
2019-05-10T17:05:14.471Z,3.50
2019-05-10T17:07:39.608Z,3.37
2019-05-10T17:10:08.720Z,3.17
2019-05-10T17:12:37.265Z,3.30
2019-05-10T17:15:06.064Z,3.35
2019-05-10T17:17:37.217Z,3.50
2019-05-10T17:20:07.311Z,4.10
2019-05-10T17:22:36.753Z,3.40
2019-05-10T17:25:06.782Z,3.15
2019-05-10T17:27:35.451Z,3.35
2019-05-10T17:30:04.609Z,3.95
2019-05-10T17:32:33.125Z,4.03
2019-05-10T17:35:04.891Z,4.40
2019-05-10T17:37:35.985Z,4.00
2019-05-10T17:40:04.702Z,4.15
2019-05-10T17:42:35.708Z,4.50
2019-05-10T17:45:04.448Z,4.50
2019-05-10T17:47:33.770Z,4.45
2019-05-10T17:50:02.931Z,4.10
2019-05-10T17:52:31.531Z,4.40
2019-05-10T17:54:59.991Z,4.25
2019-05-10T17:57:28.783Z,4.85
2019-05-10T17:59:57.374Z,3.83
2019-05-10T18:02:25.831Z,3.90
2019-05-10T18:04:54.438Z,4.22
2019-05-10T18:07:22.885Z,4.42
2019-05-10T18:09:52.637Z,4.47
2019-05-10T18:12:26.424Z,4.60
2019-05-10T18:14:55.925Z,4.50
2019-05-10T18:17:25.863Z,4.95
2019-05-10T18:19:56.730Z,5.50
2019-05-10T18:22:22.211Z,4.80
2019-05-10T18:24:50.748Z,8.13
2019-05-10T18:27:19.543Z,9.63
2019-05-10T18:29:48.137Z,6.15
2019-05-10T18:32:18.766Z,6.20
2019-05-10T18:34:47.516Z,6.08
2019-05-10T18:37:21.550Z,6.37
2019-05-10T18:39:47.338Z,6.35
2019-05-10T18:42:18.857Z,6.72
2019-05-10T18:44:52.026Z,6.53
2019-05-10T18:47:17.138Z,6.65
2019-05-10T18:49:48.016Z,6.33
2019-05-10T18:52:16.532Z,6.55
2019-05-10T18:54:45.139Z,7.15
2019-05-10T18:57:19.071Z,7.05
2019-05-10T18:59:45.422Z,6.60
2019-05-10T19:02:17.724Z,7.25
2019-05-10T19:04:45.955Z,6.90
2019-05-10T19:07:14.900Z,6.78
2019-05-10T19:09:43.593Z,7.55
2019-05-10T19:12:17.611Z,7.47
2019-05-10T19:14:42.405Z,7.37
2019-05-10T19:17:11.152Z,8.08
2019-05-10T19:19:42.159Z,7.92
2019-05-10T19:22:10.378Z,8.33
2019-05-10T19:24:39.498Z,7.90
2019-05-10T19:27:09.361Z,8.20
2019-05-10T19:29:45.540Z,8.40
2019-05-10T19:32:11.681Z,8.70
2019-05-10T19:34:38.935Z,9.03
2019-05-10T19:37:08.045Z,9.93
2019-05-10T19:39:37.157Z,9.80
2019-05-10T19:42:11.976Z,9.23
2019-05-10T19:44:42.203Z,8.68
2019-05-10T19:47:17.400Z,9.95
2019-05-10T19:49:45.918Z,9.85
2019-05-10T19:52:12.406Z,9.78
2019-05-10T19:54:41.271Z,10.75
2019-05-10T19:57:16.423Z,10.03
2019-05-10T19:59:44.152Z,9.70
2019-05-10T20:02:11.963Z,10.78
2019-05-10T20:04:41.065Z,10.10
2019-05-10T20:07:10.017Z,10.00
2019-05-10T20:09:38.895Z,11.63
2019-05-10T20:12:08.096Z,11.60
2019-05-10T20:14:36.735Z,10.78
2019-05-10T20:17:05.587Z,11.48
2019-05-10T20:19:34.677Z,11.15
2019-05-10T20:22:03.440Z,12.60
2019-05-10T20:24:32.951Z,11.80
2019-05-10T20:27:01.936Z,12.37
2019-05-10T20:29:30.988Z,11.43
2019-05-10T20:31:59.918Z,11.55
2019-05-10T20:34:28.731Z,11.80
2019-05-10T20:36:57.526Z,11.18
2019-05-10T20:39:26.583Z,11.78
2019-05-10T20:41:58.984Z,11.65
2019-05-10T20:44:28.063Z,11.97
2019-05-10T20:46:57.134Z,11.83
2019-05-10T20:49:26.551Z,12.23
2019-05-10T20:51:55.972Z,10.80
2019-05-10T20:54:24.913Z,10.40
2019-05-10T20:56:54.686Z,11.28
2019-05-10T20:59:23.575Z,11.33
2019-05-10T21:01:52.346Z,10.50
2019-05-10T21:04:21.468Z,11.00
2019-05-10T21:06:50.622Z,11.68
2019-05-10T21:09:19.418Z,11.55
2019-05-10T21:11:48.430Z,10.35
2019-05-10T21:14:17.216Z,11.53
2019-05-10T21:16:46.024Z,12.53
2019-05-10T21:19:14.831Z,13.13
2019-05-10T21:21:43.704Z,12.60
2019-05-10T21:24:12.923Z,12.58
2019-05-10T21:26:41.946Z,13.93
2019-05-10T21:29:11.494Z,13.05
2019-05-10T21:31:40.590Z,13.20
2019-05-10T21:34:10.305Z,12.68
2019-05-10T21:36:39.356Z,12.45
2019-05-10T21:39:08.269Z,12.23
2019-05-10T21:41:37.161Z,12.88
2019-05-10T21:44:06.357Z,13.25
2019-05-10T21:46:35.214Z,12.20
2019-05-10T21:49:04.506Z,12.28
2019-05-10T21:51:33.572Z,12.00
2019-05-10T21:54:02.386Z,13.43
2019-05-10T21:56:31.277Z,12.58
2019-05-10T21:59:01.189Z,14.43
2019-05-10T22:01:30.824Z,13.28
2019-05-10T22:04:00.020Z,13.78
2019-05-10T22:06:29.064Z,12.65
2019-05-10T22:08:58.238Z,13.90
2019-05-10T22:11:27.524Z,13.28
2019-05-10T22:13:56.289Z,12.50
2019-05-10T22:16:25.465Z,12.85
2019-05-10T22:19:02.189Z,12.90
2019-05-10T22:21:31.032Z,13.40
2019-05-10T22:24:00.022Z,11.60
2019-05-10T22:26:29.227Z,12.50
2019-05-10T22:28:58.121Z,12.93
2019-05-10T22:31:27.026Z,11.48
2019-05-10T22:33:56.350Z,11.83
2019-05-10T22:36:25.656Z,11.00
2019-05-10T22:39:06.380Z,10.70
2019-05-10T22:41:25.613Z,10.28
2019-05-10T22:43:54.698Z,10.93
2019-05-10T22:46:23.789Z,11.45
2019-05-10T22:48:52.864Z,11.22
2019-05-10T22:51:21.836Z,10.43
2019-05-10T22:53:59.706Z,9.00
2019-05-10T22:56:21.745Z,10.00
2019-05-10T22:58:50.776Z,8.95
2019-05-10T23:01:19.778Z,9.48
2019-05-10T23:03:49.995Z,9.40
2019-05-10T23:06:20.345Z,9.48
2019-05-10T23:08:49.459Z,9.63
2019-05-10T23:11:18.726Z,7.92
2019-05-10T23:13:47.825Z,7.62
2019-05-10T23:16:16.916Z,7.72
2019-05-10T23:18:46.442Z,8.85
2019-05-10T23:21:15.255Z,7.72
2019-05-10T23:23:44.411Z,8.60
2019-05-10T23:26:13.305Z,8.25
2019-05-10T23:28:42.441Z,7.30
2019-05-10T23:31:11.879Z,7.87
2019-05-10T23:33:40.799Z,7.75
2019-05-10T23:36:09.840Z,7.55
2019-05-10T23:38:39.001Z,7.22
2019-05-10T23:41:08.383Z,8.00
2019-05-10T23:43:37.480Z,6.75
2019-05-10T23:46:06.509Z,6.87
2019-05-10T23:48:35.488Z,6.87
2019-05-10T23:51:04.281Z,7.00
2019-05-10T23:53:33.483Z,7.05
2019-05-10T23:56:02.721Z,7.58
2019-05-10T23:58:31.607Z,7.58
